Colfax, Indiana
Current Conditions -  °F | °C
As of 12:44 AM on Tuesday 27 Jan 2015 (Local Time) from KLAF Reporting Station
Overcast Overcast  
Wind Chill: 26°   Ceiling: 3300
Heat Index: 26°   Visibility: 8mi
Dew Point: 24°   Wind: 3mph
Humidity: 92%   Direction: 70°ENE
Pressure: 29.91"   Gusts: NA
Location:  40.2°N, 86.67°W
Report Text: KLAF 270544Z AUTO 07003KT 8SM FEW013 OVC033 M03/M04 A2991 RMK AO2 T10331044 TSNO
Loading
Personal Weather Stations






























Interactive Weather Map New forecast layout! Learn more

10-Day Weather Forecast

Advertisements
Track Severe Weather on mobile